Tiempo atmosférico en la estación meteorológica de San Sebastián Aeropuerto, Gipuzkoa (4 m.)



Fecha
DESCASC
Temp. máxima en grados centígrados (hora)
DESCASC
Temp. mínima en grados centígrados (hora)
DESCASC
Temp. media en grados centígrados
DESCASC
Racha de viento máxima en m/sg (hora)
DESCASC
Velocidad máxima media en intervalos de 10 minutos(hora)
DESCASC
Precipitaciones diarias en mm
DESCASC
Precipitaciones de 00:00 a 06:00 en mm
DESCASC
Precipitaciones de 06:00 a 12:00 en mm
DESCASC
Precipitaciones de 12:00 a 18:00 en mm
DESCASC
Precipitaciones de 18:00 a 24:00 en mm
DESCASC
22-11-2020 16.4 (15:30) 1.7 (07:40) 9 5.83 (15:00) 3.61 (15:00) 0 0 0 0 0
21-11-2020 13.1 (15:00) 3 (07:50) 8.1 5.83 (15:20) 4.17 (15:20) 0 0 0 0 0
20-11-2020 13.5 (13:10) 5.4 (23:50) 9.5 6.11 (16:20) 4.44 (16:20) 0.9 0.9 0 0 0
19-11-2020 15.4 (08:00) 10.4 (00:00) 12.9 8.33 (08:20) 5 (09:00) 6.2 0 5.5 0.7 0
18-11-2020 25.4 (14:20) 9.5 (00:00) 17.4 6.67 (09:10) 5 (04:00) 0 0 0 0 0
17-11-2020 18.9 (15:40) 6.7 (00:00) 12.8 4.17 (04:20) 3.33 (15:50) 0 0 0 0 0
16-11-2020 16.3 (14:40) 8.9 (00:00) 12.6 7.78 (02:20) 4.17 (02:30) 3.6 3.6 0 0 0
15-11-2020 24 (14:10) 13.6 (00:00) 18.8 13.33 (06:10) 10.83 (06:00) 13 0 0 2.6 10.4
14-11-2020 21.1 (12:30) 8.9 (00:00) 15 11.67 (13:30) 8.33 (17:30) 0 0 0 0 0
13-11-2020 21.8 (14:00) 9.1 (00:00) 15.4 6.67 (09:50) 4.72 (09:50) 0 0 0 0 0
12-11-2020 20.7 (13:00) 8.8 (00:00) 14.8 4.17 (00:20) 3.06 (00:30) 0 0 0 0 0
11-11-2020 21.3 (13:30) 7.2 (00:00) 14.2 8.89 (13:50) 6.67 (13:50) 0 0 0 0 0
10-11-2020 16 (15:40) 9.6 (00:00) 12.8 5 (07:50) 3.61 (09:50) 14.7 0 14.7 0 0
09-11-2020 21.5 (14:40) 11.5 (00:00) 16.5 8.89 (00:20) 5.83 (13:10) 0.4 0 0.4 0 0
08-11-2020 21.6 (13:50) 13 (00:00) 17.3 12.5 (13:00) 8.61 (12:50) 0 0 0 0 0
07-11-2020 22.5 (00:20) 14.2 (00:00) 18.3 15.28 (04:30) 9.17 (04:40) 5.6 0 5.6 0 0
06-11-2020 23.1 (15:30) 11.2 (00:00) 17.2 21.11 (12:30) 15 (12:30) 0 0 0 0 0
05-11-2020 16.5 (14:40) 6.4 (00:00) 11.5 7.78 (15:20) 5.56 (15:00) 0 0 0 0 0
04-11-2020 12.2 (15:10) 7.4 (00:00) 9.8 8.33 (14:00) 6.11 (13:50) 0.5 0.5 0 0 0
03-11-2020 14.2 (12:30) 10.4 (00:00) 12.3 7.78 (09:40) 4.72 (16:00) 18.8 9.8 3.1 5.9 0
02-11-2020 24.8 (13:40) 12.7 (00:00) 18.7 16.94 (16:20) 10.56 (16:20) 4.7 0 0 2 2.7
01-11-2020 26.5 (13:20) 11.7 (00:00) 19.1 5.83 (14:20) 3.89 (11:10) 0 0 0 0 0
31-10-2020 25.5 (14:40) 8.1 (00:00) 16.8 6.67 (14:10) 4.17 (14:10) 0 0 0 0 0
30-10-2020 19.5 (14:00) 7.4 (00:00) 13.5 5 (14:20) 3.61 (14:20) 0 0 0 0 0
29-10-2020 19.2 (14:30) 9.5 (00:00) 14.4 5.83 (15:40) 3.89 (16:00) 0 0 0 0 0
28-10-2020 18 (14:00) 11.4 (00:00) 14.7 6.11 (07:30) 3.89 (15:50) 0.9 0 0.9 0 0
27-10-2020 19.5 (14:40) 10.2 (00:00) 14.8 7.22 (16:20) 5 (13:30) 0.9 0.5 0 0.4 0

Gráficas

Temp. máximas Temp. mínimas Temp. medias Precipitaciones Rachas de viento máximas Velocidades máximas media en intervalos de 10 minutos

Datos horarios

Fecha y hora oficial Temperatura (ºC) Velocidad del viento (km/h) Dirección del viento Racha (km/h) Dirección de racha Precipitación (mm) Presión (hPa) Tendencia (hPa) Humedad (%)
2020-11-25 23:00:00 7.4 2 Sur 8 Sudoeste 0 1012.5 0.2 82
2020-11-25 22:00:00 7.7 8 Sudoeste 11 Sur 0 1012.2 -0.1 82
2020-11-25 21:00:00 8.8 5 Oeste 11 Sur 0 1012 0.1 77
2020-11-25 20:00:00 10.2 4 Sudoeste 8 Sur 0 1012.3 0.5 71
2020-11-25 19:00:00 12.5 2 Sudoeste 18 Sudeste 0 1012.3 0.6 60
2020-11-25 18:00:00 15.6 14 Sudeste 21 Sudeste 0 1011.9 0 48
2020-11-25 17:00:00 17 14 Sudeste 26 Sur 0 1011.8 -0.4 43
2020-11-25 16:00:00 17.8 14 Sur 30 Sudeste 0 1011.7 -1.2 41
2020-11-25 15:00:00 17.7 17 Sudeste 26 Sur 0 1011.9 -1.8 42
2020-11-25 14:00:00 18.2 15 Sur 32 Sur 0 1012.2 -2.1 41
2020-11-25 13:00:00 17.5 18 Sur -- -- -- 1012.9 -1.4 43
2020-11-25 12:00:00 15.7 5 Nordeste 9 Norte 0 1013.7 -0.4 56
2020-11-25 11:00:00 13.5 0 Calma 13 Sur 0 1014.3 -- 64
2020-11-25 10:00:00 10 4 Sudoeste 8 Sudoeste 0 1014.3 -- 76
2020-11-25 09:00:00 7.8 5 Sudoeste 11 Sudoeste 0 1014.1 -- 82
2020-11-25 08:00:00 7.4 5 Sur 11 Sudoeste 0 1014 -- 82
2020-11-25 07:00:00 7.5 4 Sudoeste 11 Oeste 0 1013.8 -- 79
2020-11-25 06:00:00 7.9 5 Sur 11 Sudoeste 0 1013.8 -- 77
2020-11-25 05:00:00 7.8 4 Sudoeste 9 Sur 0 1013.6 -- 76
2020-11-25 04:00:00 7.6 3 Sudeste 11 Oeste 0 1013.7 -- 75
2020-11-25 03:00:00 8.5 7 Norte 13 Oeste 0 1013.6 -- 70
2020-11-25 02:00:00 9.1 0 Calma -- -- -- 1013.6 -- 68
2020-11-25 01:00:00 11.1 13 Sur 28 Sur 0 1014.2 -- 58
2020-11-25 00:00:00 8.4 5 Sudoeste 17 Sudeste 0 1014.8 -- 77
2020-11-24 23:00:00 10.5 11 Sur 18 Sur 0 1015.4 -- 65
2020-11-24 22:00:00 11.6 6 Sudoeste 17 Sur 0 1015.9 -- 58
2020-11-24 21:00:00 12.9 12 Sur 24 Sur 0 1016.2 -- 54
2020-11-24 20:00:00 12.5 15 Sur 21 Sur 0 1016.5 -- 57
2020-11-24 19:00:00 11.1 8 Sudoeste 11 Sur 0 1016.7 -- 73
2020-11-24 18:00:00 14 5 Sudoeste 9 Sur 0 1016.8 -- 62
2020-11-24 17:00:00 16.8 8 Sur 15 Oeste 0 1016.8 -- 48
2020-11-24 16:00:00 18.4 9 Sudoeste 13 Sudoeste 0 1017 -- 38
2020-11-24 15:00:00 18.1 5 Sudoeste 18 Sudoeste 0 1017.5 -- 37
2020-11-24 14:00:00 18.2 12 Oeste 18 Sudoeste 0 1018.2 -- 38
2020-11-24 13:00:00 18.2 14 Sudoeste 22 Sudoeste 0 1018.6 -- 36
2020-11-24 12:00:00 17 9 Sur 15 Sur 0 1019.1 -- 41
2020-11-24 11:00:00 13.8 4 Norte 15 Sur 0 1019.6 -- 60
2020-11-24 10:00:00 8.2 10 Sur 15 Sur 0 1019.7 -- 90
2020-11-24 09:00:00 5 8 Sudoeste 11 Sudoeste 0 1019.5 -- 93
2020-11-24 08:00:00 4.6 7 Sur 13 Sudoeste 0 1019.6 -- 93
2020-11-24 07:00:00 4.3 5 Sudoeste 13 Sudoeste 0 1019.6 -- 93
2020-11-24 06:00:00 4.9 9 Sudoeste 11 Sudoeste 0 1020.1 -- 94
2020-11-24 05:00:00 4.7 9 Sur 11 Sudoeste 0 1020.9 -- 94
2020-11-24 04:00:00 4.3 3 Sudoeste 8 Oeste 0 1021.8 -- 93
2020-11-24 03:00:00 4.7 5 Sudoeste 8 Sudoeste 0 1022.4 -- 93
2020-11-24 02:00:00 5.2 2 Sudoeste -- -- -- 1023.3 -- 93
2020-11-24 01:00:00 5.5 4 Oeste -- -- 0 1024.2 -- 92
2020-11-24 00:00:00 6 4 Sudoeste -- -- 0 1024.8 -- 91
2020-11-23 23:00:00 6.7 7 Sur 8 Sur 0 1025.3 -- 91
2020-11-23 22:00:00 7.5 5 Sudoeste 8 Sudoeste 0 1026 -- 90
2020-11-23 21:00:00 8.3 4 Sur 9 Sur 0 1026.2 -- 89
2020-11-23 20:00:00 9.4 6 Sur 8 Sudoeste 0 1026.7 -- 88
2020-11-23 19:00:00 10.6 5 Sudoeste 9 Sudeste 0 1026.6 -- 84
2020-11-23 18:00:00 12.2 5 Este -- -- 0 1026.5 -- 79
2020-11-23 17:00:00 13.4 4 Nordeste 9 Nordeste 0 1026.4 -- 74
2020-11-23 16:00:00 14 8 Nordeste 11 Nordeste 0 1026.6 -- 72
2020-11-23 15:00:00 14.3 8 Norte 13 Nordeste 0 1026.8 -- 70
2020-11-23 14:00:00 14.6 9 Nordeste 13 Nordeste 0 1027.4 -- 68
2020-11-23 13:00:00 14.7 4 Sudeste 5 Sudeste 0 1028.1 -- 60
2020-11-23 12:00:00 12.4 5 Sudeste 8 Sudeste 0 1028.8 -- 66
2020-11-23 11:00:00 10.3 6 Sudeste 9 Sur 0 1029.1 -- 72
2020-11-23 10:00:00 7.3 6 Sur 11 Sur 0 1029.1 -- 80
2020-11-23 09:00:00 6.1 7 Sudeste 13 Sur 0 1028.7 -- 86
2020-11-23 08:00:00 5.7 9 Sur 13 Sur 0 1028.3 -- 87
2020-11-23 07:00:00 6.2 10 Sur 13 Sur 0 1028.2 -- 86
2020-11-23 06:00:00 6.1 5 Sur 9 Sudoeste 0 1028.3 -- 86
2020-11-23 05:00:00 6.3 9 Sur 17 Sur 0 1028.1 -- 85
2020-11-23 04:00:00 6.7 12 Sur 15 Sur 0 1028.5 -- 86
2020-11-23 03:00:00 6.6 13 Sur 17 Sur 0 1028.5 -- 87
2020-11-23 02:00:00 6.4 11 Sur -- -- -- 1028.5 -- 87
2020-11-23 01:00:00 6 13 Sur 15 Sur 0 1028.6 -- 89
2020-11-23 00:00:00 6.4 10 Sur 11 Sur 0 1028.5 -- 89
2020-11-22 23:00:00 5.6 8 Sur 13 Sur 0 1028.3 -- 89
2020-11-22 22:00:00 6.9 8 Sudoeste 9 Sudoeste 0 1028.1 -- 88
2020-11-22 21:00:00 7.1 6 Sudoeste 13 Sur 0 1027.8 -- 87
2020-11-22 20:00:00 8 9 Sur 9 Sudoeste 0 1027.7 -- 83
2020-11-22 19:00:00 9.3 8 Sur 11 Sur 0 1027.3 -- 80
2020-11-22 18:00:00 11.7 8 Sur 15 Sur 0 1026.7 -- 69
2020-11-22 17:00:00 14.5 3 Noroeste 15 Oeste 0 1026.2 -- 60
2020-11-22 16:00:00 16.1 9 Oeste 18 Oeste 0 1026 -- 49
2020-11-22 15:00:00 16.2 13 Noroeste 21 Noroeste 0 1026 -- 43
2020-11-22 14:00:00 15.3 4 Este 9 Este 0 1026.4 -- 50
2020-11-22 13:00:00 15.1 5 Sudeste 13 Sudoeste 0 1026.7 -- 43
2020-11-22 12:00:00 14.5 7 Sudoeste 13 Sudoeste 0 1026.9 -- 41
2020-11-22 11:00:00 10.9 8 Sur 11 Sur 0 1027.2 -- 61
2020-11-22 10:00:00 7 9 Sur 13 Sudoeste 0 1026.9 -- 77
2020-11-22 09:00:00 3.3 10 Sudoeste 13 Sudoeste 0 1026.6 -- 90
2020-11-22 08:00:00 2.5 9 Sudoeste 13 Sur 0 1026.2 -- 92
2020-11-22 07:00:00 2.1 9 Sur 11 Sur 0 1026 -- 91
2020-11-22 06:00:00 1.9 8 Sudoeste 9 Sudoeste 0 1025.8 -- 90
2020-11-22 05:00:00 3.1 7 Sur 13 Oeste 0 1025.6 -- 90
2020-11-22 04:00:00 2.8 9 Sur 9 Sur 0 1025.8 -- 91
2020-11-22 03:00:00 3.3 -- -- -- -- 0 1025.9 -- 91
2020-11-22 02:00:00 3.8 6 Sudoeste -- -- -- 1026.1 -- 91
2020-11-22 01:00:00 4.4 8 Sudoeste 11 Sudoeste 0 1026.3 -- 90
2020-11-22 00:00:00 3.9 9 Sur 11 Sur 0 1027.4 -- 87
2020-11-21 23:00:00 5.3 6 Sur 11 Sur 0 1027.9 -- 88
2020-11-21 22:00:00 5.9 9 Sur 9 Sur 0 1028.2 -- 87
2020-11-21 21:00:00 6.3 5 Sudoeste 13 Sudeste 0 1028.4 -- 83
2020-11-21 20:00:00 7.4 5 Sur 11 Sudeste 0 1028.4 -- 79
2020-11-21 19:00:00 8.4 5 Sudoeste 9 Sudoeste 0 1028.6 -- 73
2020-11-21 18:00:00 11 8 Este 15 Este 0 1028.3 -- 62
2020-11-21 17:00:00 12.3 12 Nordeste 21 Norte 0 1028.1 -- 55
2020-11-21 16:00:00 12.9 13 Nordeste 21 Nordeste 0 1028.1 -- 54
2020-11-21 15:00:00 13 12 Nordeste 17 Nordeste 0 1028.3 -- 50
2020-11-21 14:00:00 12.7 10 Norte 13 Nordeste 0 1028.8 -- 57
2020-11-21 13:00:00 11.4 9 Nordeste 13 Nordeste 0 1029.7 -- 57
2020-11-21 12:00:00 9.7 4 Sur 13 Sur 0 1030.6 -- 66
2020-11-21 11:00:00 7.1 0 Calma 9 Sur 0 1031.6 -- 78
2020-11-21 10:00:00 5 5 Sur 9 Sur 0 1031.9 -- 88
2020-11-21 09:00:00 3.7 5 Sudeste 11 Sur 0 1031.7 -- 92
2020-11-21 08:00:00 3.1 7 Sur 11 Sur 0 1031.5 -- 92
2020-11-21 07:00:00 3.7 5 Sur 9 Sudoeste 0 1031.6 -- 92
2020-11-21 06:00:00 3.3 8 Sur 9 Sur 0 1031.5 -- 91
2020-11-21 05:00:00 3.9 4 Sur 13 Sudeste 0 1031.6 -- 90
2020-11-21 04:00:00 4.4 8 Sur 11 Sudeste 0 1031.8 -- 91
2020-11-21 03:00:00 4 7 Sur 9 Sudoeste 0 1032.2 -- 90
2020-11-21 02:00:00 5.3 6 Sur -- -- -- 1032.7 -- 88
2020-11-21 01:00:00 5.5 7 Sur 9 Sudeste 0 1033.4 -- 89
2020-11-21 00:00:00 5.6 2 Sudoeste 11 Sur 0 1033.9 -- 90
2020-11-20 23:00:00 5.9 4 Sur 8 Sur 0 1034.2 -- 89
2020-11-20 22:00:00 7 8 Sur 9 Sur 0 1034.3 -- 87
2020-11-20 21:00:00 7.5 5 Sur 9 Sur 0 1034.4 -- 87
2020-11-20 20:00:00 8.4 6 Sur 9 Sur 0 1034.3 -- 84
2020-11-20 19:00:00 10 8 Sur 13 Sudeste 0 1034.5 -- 78
2020-11-20 18:00:00 11.6 10 Nordeste 17 Nordeste 0 1034.4 -- 65
2020-11-20 17:00:00 12.3 10 Norte 22 Nordeste 0 1034.4 -- 63
2020-11-20 16:00:00 12.8 15 Nordeste 21 Nordeste 0 1034.5 -- 60
2020-11-20 15:00:00 13.1 10 Norte 18 Nordeste 0 1034.7 -- 59
2020-11-20 14:00:00 13.3 14 Nordeste 21 Nordeste 0 1035.4 -- 56
2020-11-20 13:00:00 13.1 12 Nordeste 18 Nordeste 0 1035.8 -- 63
2020-11-20 12:00:00 12.9 13 Nordeste 17 Nordeste 0 1036.3 -- 66
2020-11-20 11:00:00 12.3 10 Este 17 Este 0 1036.4 -- 71
2020-11-20 10:00:00 10.7 4 Sur 11 Este 0 1036.5 -- 92
2020-11-20 09:00:00 9.7 0 Calma 5 Sudoeste 0 1036.7 -- 94
2020-11-20 08:00:00 9.8 4 Sudoeste -- -- 0 1036.1 -- 94
2020-11-20 07:00:00 9.9 5 Sur 9 Sudoeste 0 1035.8 -- 94
2020-11-20 06:00:00 10.1 8 Sur 9 Sur 0.6 1035.9 -- 92
2020-11-20 05:00:00 10.6 6 Sur 11 Sur 0.3 1036.2 -- 88
2020-11-20 04:00:00 10.6 9 Sur 15 Sur 0 1036.5 -- 87
2020-11-20 03:00:00 10.6 11 Sur 15 Sudoeste 0 1036.7 -- 87
2020-11-20 02:00:00 10.8 9 Sur 13 Sudoeste 0 1036.9 -- 88
2020-11-20 01:00:00 10.9 9 Sur 11 Sudoeste 0 1037.3 -- 89
2020-11-20 00:00:00 11.1 7 Sur 9 Sur 0 1037.8 -- 89
2020-11-19 23:00:00 11.2 8 Sudeste 15 Sur 0 1037.6 -- 86
2020-11-19 22:00:00 11 3 Sudoeste 11 Sur 0 1038.2 -- 89
2020-11-19 21:00:00 11.2 10 Sur 13 Sur 0 1037.4 -- 89
2020-11-19 20:00:00 11.5 11 Sur 17 Sudoeste 0 1037.2 -- 88
2020-11-19 19:00:00 11.6 13 Sudoeste 18 Sudoeste 0 1037 -- 89
2020-11-19 18:00:00 11.8 11 Sudoeste 15 Sudoeste 0 1037 -- 87
2020-11-19 17:00:00 12.2 11 Sur 21 Norte 0 1037.2 -- 84
2020-11-19 16:00:00 12.7 12 Noroeste 26 Norte 0 1037.4 -- 77
2020-11-19 15:00:00 13.6 12 Noroeste 24 Norte 0 1036.8 -- 74
2020-11-19 14:00:00 13.9 8 Noroeste 13 Oeste 0.1 1035.6 -- 82
2020-11-19 13:00:00 13.3 11 Noroeste 24 Norte 0.6 1036.2 -- 90
2020-11-19 12:00:00 13.7 3 Noroeste 11 Noroeste 0 1036.3 -- 90
2020-11-19 11:00:00 13.6 5 Noroeste 18 Norte 0.2 1035.8 -- 92
2020-11-19 10:00:00 13.5 13 Norte 30 Norte 1.4 1035.2 -- 93
2020-11-19 09:00:00 14.5 18 Norte 30 Norte 2.3 1034.3 -- 93
2020-11-19 08:00:00 15.3 9 Norte 15 Norte 1.6 1032.5 -- 92
2020-11-19 07:00:00 14.9 9 Oeste 17 Sudoeste 0 1031.9 -- 88
2020-11-19 06:00:00 15.1 14 Sudoeste 17 Oeste 0 1031.6 -- 85
2020-11-19 05:00:00 12.9 9 Sur 13 Sur 0 1030.5 -- 85
2020-11-19 04:00:00 11.6 9 Sur 13 Sur 0 1029.6 -- 90
2020-11-19 03:00:00 11 7 Sur 11 Sur 0 1029.1 -- 91
2020-11-19 02:00:00 11.1 3 Sudoeste 13 Sur 0 1028.8 -- 89
2020-11-19 01:00:00 11.6 10 Sur 11 Sudoeste 0 1028.7 -- 87
2020-11-19 00:00:00 12 6 Sudeste 13 Sur 0 1028.4 -- 87
2020-11-18 23:00:00 11.8 9 Sur 11 Sudoeste 0 1027.9 -- 87
2020-11-18 22:00:00 12.6 5 Sudoeste 9 Sur 0 1027.1 -- 86
2020-11-18 21:00:00 13.7 7 Sur 11 Sur 0 1026.4 -- 82
2020-11-18 20:00:00 14.3 5 Sudoeste 8 Sudoeste 0 1025.7 -- 79
2020-11-18 19:00:00 15.4 4 Oeste -- -- 0 1025.3 -- 76
2020-11-18 18:00:00 17.7 3 Oeste 8 Noroeste 0 1024.8 -- 68
2020-11-18 17:00:00 19.9 0 Calma 9 Este 0 1024.5 -- 58
2020-11-18 16:00:00 20.6 9 Nordeste 18 Nordeste 0 1024.3 -- 58
2020-11-18 15:00:00 22.7 15 Nordeste 21 Nordeste 0 1023.8 -- 52
2020-11-18 14:00:00 25.2 5 Sudoeste 17 Sudoeste 0 1023.7 -- 36
2020-11-18 13:00:00 24.6 14 Sudoeste 22 Sudoeste 0 1023.9 -- 39
2020-11-18 12:00:00 23.6 13 Sudoeste 18 Sudoeste 0 1024 -- 41
2020-11-18 11:00:00 20.5 10 Sur 21 Sur 0 1023.7 -- 50
2020-11-18 10:00:00 18.7 15 Sur 24 Sur 0 1023.3 -- 50
2020-11-18 09:00:00 15.5 14 Sur 18 Sur 0 1022.7 -- 60
2020-11-18 08:00:00 15.3 15 Sur 18 Sur 0 1021.9 -- 57
2020-11-18 07:00:00 14.6 11 Sudoeste 17 Sur 0 1021.2 -- 58
2020-11-18 06:00:00 13.8 10 Sur -- -- -- 1020.9 -- 63
2020-11-18 05:00:00 15.1 10 Sudeste 22 Sudeste 0 1020.5 -- 57
2020-11-18 04:00:00 15.2 18 Sudeste 22 Sudeste 0 1020.5 -- 55
2020-11-18 03:00:00 14.8 14 Sur 18 Sur 0 1020.7 -- 54
2020-11-18 02:00:00 13.3 14 Sur 18 Sudeste 0 1020.8 -- 59
2020-11-18 01:00:00 9.5 6 Sudoeste 13 Sur 0 1021.3 -- 80
2020-11-18 00:00:00 10.4 10 Sur 13 Sur 0 1021.6 -- 77
2020-11-17 23:00:00 10.2 5 Sudoeste 11 Sur 0 1021.8 -- 82
2020-11-17 22:00:00 10.1 5 Sudoeste 13 Sudoeste 0 1021.9 -- 87
2020-11-17 21:00:00 10.4 6 Sudoeste 11 Sudoeste 0 1021.9 -- 87
2020-11-17 20:00:00 11.3 6 Sudoeste 9 Sudoeste 0 1022 -- 87
2020-11-17 19:00:00 12.9 6 Sur 9 Sur 0 1021.9 -- 82
2020-11-17 18:00:00 15.6 4 Sur 9 Este 0 1021.9 -- 73
2020-11-17 17:00:00 17.6 8 Nordeste 13 Este 0 1022.1 -- 63
2020-11-17 16:00:00 18.8 11 Este 15 Este 0 1022.3 -- 60
2020-11-17 15:00:00 18.5 3 Nordeste 9 Norte 0 1022.9 -- 57
2020-11-17 14:00:00 18.1 3 Norte 8 Norte 0 1023.6 -- 56
2020-11-17 13:00:00 15.9 3 Nordeste 11 Norte 0 1024.3 -- 64
2020-11-17 12:00:00 13.8 7 Norte 11 Norte 0 1025.4 -- 73
2020-11-17 11:00:00 12.5 2 Oeste 8 Sur 0 1025.8 -- 71
2020-11-17 10:00:00 9.8 4 Sudeste 8 Sur 0 1025.7 -- 90
2020-11-17 09:00:00 7.4 8 Sudoeste 9 Sur 0 1025.8 -- 94
2020-11-17 08:00:00 7 6 Sur 9 Sudeste 0 1025.3 -- 94
2020-11-17 07:00:00 6.9 5 Sur 9 Sur 0 1025.1 -- 93
2020-11-17 06:00:00 7.2 4 Sudoeste 8 Sur 0 1025.1 -- 93
2020-11-17 05:00:00 7.8 4 Sur 15 Sudeste 0 1025.5 -- 92
2020-11-17 04:00:00 8.6 9 Sur 11 Sur 0 1026.4 -- 94
2020-11-17 03:00:00 7.9 5 Sudoeste -- -- 0 1026.5 -- 94
2020-11-17 02:00:00 8.1 4 Sudoeste 8 Sudoeste 0 1026.7 -- 93
2020-11-17 01:00:00 8.9 6 Sur 9 Sur 0 1026.9 -- 93
2020-11-17 00:00:00 9 7 Sudoeste 11 Sudoeste 0 1027.2 -- 93
2020-11-16 23:00:00 9.5 5 Sudoeste 9 Sur 0 1027.4 -- 92
2020-11-16 22:00:00 10.1 5 Sudoeste 9 Sur 0 1027.6 -- 91
2020-11-16 21:00:00 10.8 9 Sur 13 Sudeste 0 1026.9 -- 89
2020-11-16 20:00:00 11.5 8 Sur 9 Sudeste 0 1027 -- 89
2020-11-16 19:00:00 12.5 7 Sur 15 Sudeste 0 1026.7 -- 87
2020-11-16 18:00:00 14.2 0 Calma 8 Norte 0 1026.3 -- 80
2020-11-16 17:00:00 15.3 4 Norte 8 Norte 0 1026.1 -- 68
2020-11-16 16:00:00 15.6 4 Nordeste 11 Norte 0 1026.1 -- 69
2020-11-16 15:00:00 16.1 6 Nordeste 9 Nordeste 0 1026 -- 67
2020-11-16 14:00:00 15.8 8 Norte 13 Norte 0 1026.2 -- 73
2020-11-16 13:00:00 15.7 5 Sur 15 Sudoeste 0 1026 -- 69
2020-11-16 12:00:00 15.2 10 Sudoeste 15 Sudoeste 0 1025.7 -- 78
2020-11-16 11:00:00 14.7 11 Sudoeste 15 Sudoeste 0 1026 -- 81
2020-11-16 10:00:00 14 10 Sur 17 Sudoeste 0 1025.8 -- 88
2020-11-16 09:00:00 12.4 11 Sudoeste 21 Sudoeste 0 1025.2 -- 93
2020-11-16 08:00:00 12.4 15 Sudoeste 18 Sudoeste 0 1024.7 -- 92
2020-11-16 07:00:00 12.6 12 Sudoeste 15 Sur 0 1024.1 -- 92
2020-11-16 06:00:00 12.5 10 Sur 15 Sur 0.2 1023.6 -- 93
2020-11-16 05:00:00 12.5 6 Sudoeste 13 Noroeste 1.6 1023.4 -- 94
2020-11-16 04:00:00 12.7 11 Sur 17 Sur 0.8 1023.2 -- 94
2020-11-16 03:00:00 12.6 5 Sur 28 Oeste 1 1023 -- 92
2020-11-16 02:00:00 13.1 8 Sudoeste 18 Sudoeste 0 1022.3 -- 92
2020-11-16 01:00:00 13.3 13 Sudoeste 21 Sudoeste 0 1022 -- 91
2020-11-16 00:00:00 13.6 11 Sudoeste 17 Sudoeste 0 1021.7 -- 90
2020-11-15 23:00:00 13.8 10 Sudoeste 24 Sudoeste 0.1 1021.3 -- 89
2020-11-15 22:00:00 14.1 12 Oeste 32 Oeste 1.8 1021 -- 87
2020-11-15 21:00:00 14.6 8 Noroeste 26 Oeste 2.2 1019.8 -- 92
2020-11-15 20:00:00 14.7 3 Oeste 28 Oeste 4.9 1018.9 -- 91
2020-11-15 19:00:00 15 10 Sudoeste 21 Sudoeste 1.4 1017.6 -- 92
2020-11-15 18:00:00 15.3 10 Sudoeste 18 Oeste 1.6 1017.1 -- 93
2020-11-15 17:00:00 15.5 13 Oeste 28 Oeste 1 1016.5 -- 90
2020-11-15 16:00:00 17.1 19 Oeste 46 Noroeste 0 1015.8 -- 82
2020-11-15 15:00:00 22.8 22 Oeste 45 Noroeste 0 1013.9 -- 53
2020-11-15 14:00:00 23.6 28 Sudoeste 41 Sudoeste 0 1012.2 -- 47
2020-11-15 13:00:00 23.3 24 Sudoeste 41 Sudoeste 0 1012.2 -- 46
2020-11-15 12:00:00 23.2 35 Sudoeste 48 Sur 0 1012.2 -- 46
2020-11-15 11:00:00 22.2 29 Sudoeste 48 Sudoeste 0 1012.2 -- 49
2020-11-15 10:00:00 20.9 29 Sudoeste 48 Sudoeste 0 1012.1 -- 50
2020-11-15 09:00:00 20.1 30 Sudoeste 42 Sudoeste 0 1012.6 -- 51
2020-11-15 08:00:00 18.9 24 Sur 42 Sur 0 1012.1 -- 55
2020-11-15 07:00:00 19.4 31 Sudoeste 48 Sur 0 1012.1 -- 51
2020-11-15 06:00:00 19.2 39 Sur 46 Sur 0 1012.4 -- 51
2020-11-15 05:00:00 18.8 25 Sur 41 Sudoeste 0 1012.5 -- 52
2020-11-15 04:00:00 18.5 24 Sur 41 Sur 0 1012.8 -- 54
2020-11-15 03:00:00 18.8 21 Sur 33 Sudoeste 0 1013.1 -- 54
2020-11-15 02:00:00 18.2 8 Sudeste 26 Sur 0 1013.8 -- 56
2020-11-15 01:00:00 18.1 24 Sur 33 Sur 0 1014.6 -- 56
2020-11-15 00:00:00 17.9 18 Sudoeste 28 Sudoeste 0 1015 -- 56
2020-11-14 23:00:00 18.1 16 Sudoeste 28 Sudoeste 0 1015.2 -- 55
2020-11-14 22:00:00 17.9 16 Sudoeste 24 Sudoeste 0 1015.3 -- 55
2020-11-14 21:00:00 16.4 8 Sur 13 Sur 0 1015.2 -- 61
2020-11-14 20:00:00 17.4 6 Sur 33 Sur 0 1015.4 -- 56
2020-11-14 19:00:00 19.2 26 Sur 32 Sur 0 1015 -- 49
2020-11-14 18:00:00 19.1 21 Sur 39 Sudoeste 0 1014.8 -- 49
2020-11-14 17:00:00 19.5 20 Sur 28 Sur 0 1014.9 -- 48
2020-11-14 16:00:00 19.5 15 Sur 26 Sudoeste 0 1014.7 -- 49
2020-11-14 15:00:00 19.7 14 Sur 39 Sur 0 1014.8 -- 46
2020-11-14 14:00:00 20 22 Sur 42 Sur 0 1015.1 -- 44
2020-11-14 13:00:00 20.3 23 Sudoeste 32 Sudoeste 0 1015.2 -- 45
2020-11-14 12:00:00 20 10 Sur 41 Sudoeste 0 1015.7 -- 45
2020-11-14 11:00:00 19.4 11 Sur 17 Sur 0 1016 -- 47
2020-11-14 10:00:00 18 9 Sudeste 13 Sudeste 0 1016.1 -- 51
2020-11-14 09:00:00 16.5 7 Sudoeste 24 Sudoeste 0 1016 -- 53
2020-11-14 08:00:00 16.3 15 Sur 32 Sudoeste 0 1015.6 -- 52
2020-11-14 07:00:00 16.1 11 Sur 17 Sur 0 1015.6 -- 53
2020-11-14 06:00:00 13.1 4 Sur 8 Sur 0 1015.6 -- 65
2020-11-14 05:00:00 14.7 6 Sur 28 Sur 0 1015.2 -- 56
2020-11-14 04:00:00 13.3 9 Oeste 30 Sudeste 0 1015.3 -- 63
2020-11-14 03:00:00 10.1 4 Sur 13 Sudoeste 0 1016.4 -- 82
2020-11-14 02:00:00 9.4 5 Sudoeste 11 Sur 0 1017.2 -- 85
2020-11-14 01:00:00 9.2 5 Noroeste 11 Sudoeste 0 1017.7 -- 85
2020-11-14 00:00:00 9.3 8 Oeste 11 Oeste 0 1017.9 -- 85
2020-11-13 23:00:00 9.8 4 Sudoeste 13 Sudoeste 0 1017.9 -- 83
2020-11-13 22:00:00 10.5 3 Sudoeste 8 Sudoeste 0 1017.9 -- 81
2020-11-13 21:00:00 11.7 0 Calma 8 Noroeste 0 1018.1 -- 78
2020-11-13 20:00:00 12.8 5 Oeste 11 Sur 0 1017.9 -- 75
2020-11-13 19:00:00 15.2 3 Sudoeste 13 Sudeste 0 1018 -- 66
2020-11-13 18:00:00 17.3 3 Sudeste 8 Oeste 0 1017.7 -- 60
2020-11-13 17:00:00 19.5 3 Sur 17 Sudeste 0 1017.4 -- 49
2020-11-13 16:00:00 20.1 11 Nordeste 18 Este 0 1017.5 -- 52
2020-11-13 15:00:00 21.2 9 Nordeste 11 Nordeste 0 1017.7 -- 50
2020-11-13 14:00:00 21.8 6 Este 11 Sur 0 1017.9 -- 41
2020-11-13 13:00:00 20.7 5 Sudeste 13 Sur 0 1018.3 -- 46
2020-11-13 12:00:00 19.8 11 Sur 18 Oeste 0 1019.1 -- 51
2020-11-13 11:00:00 19.1 13 Sudoeste 22 Sudoeste 0 1019 -- 50
2020-11-13 10:00:00 19.1 17 Sudoeste 24 Sudoeste 0 1019.1 -- 50
2020-11-13 09:00:00 14.5 11 Sur 18 Sudoeste 0 1018.9 -- 65
2020-11-13 08:00:00 13.6 11 Sur 17 Sur 0 1018.2 -- 66
2020-11-13 07:00:00 12.7 10 Sur 15 Sur 0 1017.4 -- 68
2020-11-13 06:00:00 12.2 10 Sur 15 Sur 0 1017.2 -- 66
2020-11-13 05:00:00 12.3 5 Oeste 8 Noroeste 0 1016.3 -- 67
2020-11-13 04:00:00 13.4 5 Este 13 Sur 0 1016.3 -- 65
2020-11-13 03:00:00 14.8 6 Sudoeste 21 Sur 0 1016.5 -- 58
2020-11-13 02:00:00 11.7 9 Sur 13 Sudeste 0 1016.9 -- 74
2020-11-13 01:00:00 10.2 3 Este 11 Sur 0 1017.4 -- 84
2020-11-13 00:00:00 9.8 5 Sudoeste 9 Sudoeste 0 1017.9 -- 86
2020-11-12 23:00:00 10.7 4 Oeste 13 Sur 0 1018 -- 85
2020-11-12 22:00:00 10.9 5 Oeste 9 Sudoeste 0 1018.2 -- 85
2020-11-12 21:00:00 11.5 6 Sudoeste 9 Sudoeste 0 1018 -- 85
2020-11-12 20:00:00 12.5 7 Sudoeste 11 Sur 0 1018.1 0 84
2020-11-12 19:00:00 14.5 7 Sudoeste 11 Sudoeste 0 1018.4 -- 79
2020-11-12 18:00:00 16.7 3 Sudoeste 9 Noroeste 0 1018.2 -- 71
2020-11-12 17:00:00 18.9 5 Norte 11 Norte 0 1018.1 -- 64
2020-11-12 16:00:00 18.9 8 Norte 13 Norte 0 1018.5 -- 67
2020-11-12 15:00:00 18.7 7 Norte 13 Norte 0 1018.8 -- 63
2020-11-12 14:00:00 19.5 9 Norte 13 Norte 0 1019.4 -- 55
2020-11-12 13:00:00 20.6 8 Norte 11 Norte 0 1019.9 -- 48
2020-11-12 12:00:00 18.5 0 Calma 8 Sur 0 1021 -- 47
2020-11-12 11:00:00 16.4 6 Sur 11 Sudoeste 0 1021.3 -- 57
2020-11-12 10:00:00 14 6 Sudoeste 8 Oeste 0 1021.4 -- 68
2020-11-12 09:00:00 10.3 7 Sur 9 Sudoeste 0 1021.4 -- 86
2020-11-12 08:00:00 8.9 6 Sudoeste 11 Sudoeste 0 1021.1 -- 89
2020-11-12 07:00:00 10.1 7 Sur -- -- 0 1020.6 -- 86
2020-11-12 06:00:00 11 9 Sur 11 Sur 0 1020.6 -- 84
2020-11-12 05:00:00 11.7 6 Sudoeste 13 Sur 0 1020.4 -- 85
2020-11-12 04:00:00 13.2 6 Sudoeste 11 Sudoeste 0 1020.7 -- 75
2020-11-12 03:00:00 13.7 9 Sur 11 Sur 0 1020.8 -- 72
2020-11-12 02:00:00 13.8 8 Sur 13 Sur 0 1020.9 -- 71
2020-11-12 01:00:00 12.8 9 Sur 15 Sur 0 1020.6 -- 77
2020-11-12 00:00:00 12.3 10 Sur 13 Sur 0 1020.2 -- 78
2020-11-11 23:00:00 12.8 6 Oeste 13 Sur 0 1019.9 -- 75
2020-11-11 22:00:00 13 9 Sur 13 Sur 0 1019.5 -- 78
2020-11-11 21:00:00 13.5 9 Sur 11 Sur 0 1018.8 -- 76
2020-11-11 20:00:00 14.2 8 Sur 13 Sur 0 1019.6 -- 72
2020-11-11 19:00:00 15.8 4 Sur 22 Sudoeste 0 1019.5 -- 61
2020-11-11 18:00:00 18.5 17 Sudoeste 26 Sudoeste 0 1018.8 -- 48
2020-11-11 17:00:00 19.5 20 Sudoeste 32 Sudoeste 0 1018.8 -- 44
2020-11-11 16:00:00 20 9 Sudoeste 18 Sur 0 1018.8 -- 47
2020-11-11 15:00:00 20.1 12 Sur 32 Sur 0 1018.7 -- 43
2020-11-11 14:00:00 20.5 20 Sur 32 Sudoeste 0 1019.1 -- 42
2020-11-11 13:00:00 20.7 18 Sur 24 Sur 0 1019.6 -- 44
2020-11-11 12:00:00 20.1 14 Sur 18 Sur 0 1020.5 -- 47
2020-11-11 11:00:00 18.3 7 Sudoeste 11 Sur 0 1021.1 -- 55
2020-11-11 10:00:00 14.3 10 Sur 15 Sudoeste 0 1021.4 -- 80
2020-11-11 09:00:00 9.5 6 Sudoeste 13 Sur 0 1022.1 -- 96
2020-11-11 08:00:00 7.8 12 Sur 13 Sur 0 1022.3 -- 96
2020-11-11 07:00:00 7.3 6 Sudoeste 11 Sudoeste 0 1022.5 -- 96
2020-11-11 06:00:00 7.6 5 Sudoeste 11 Sudoeste 0 1023 -- 96
2020-11-11 05:00:00 7.7 5 Sudoeste -- -- 0 1023.3 -- 96
2020-11-11 04:00:00 7.8 4 Sudoeste -- -- 0 1023.8 -- 96
2020-11-11 03:00:00 8.1 5 Sudoeste 9 Sur 0 1024.4 -- 96
2020-11-11 02:00:00 9.4 6 Sudoeste 11 Sur 0 1025.2 -- 96
2020-11-11 01:00:00 9.6 8 Sur 11 Sur 0 1026 -- 95
2020-11-11 00:00:00 9.9 0 Calma 9 Sudoeste 0 1026.2 -- 95
2020-11-10 23:00:00 10.1 2 Sur 9 Sur 0 1027 -- 94
2020-11-10 22:00:00 10.6 5 Sur 8 Sudoeste 0 1027 -- 94
2020-11-10 21:00:00 11.3 4 Oeste 9 Oeste 0 1026.8 -- 93
2020-11-10 20:00:00 12.3 5 Sur 8 Sudeste 0 1026.8 -- 93
2020-11-10 19:00:00 12.9 3 Oeste 8 Sudoeste 0 1027.1 -- 91
2020-11-10 18:00:00 14.3 0 Calma 5 Oeste 0 1027.1 -- 87
2020-11-10 17:00:00 15.7 0 Calma 5 Este 0 1027 -- 82
2020-11-10 16:00:00 15.6 5 Este -- -- 0 1027 -- 83
2020-11-10 15:00:00 15.7 4 Noroeste 13 Noroeste 0 1027.2 -- 83
2020-11-10 14:00:00 15.6 6 Noroeste 11 Oeste 0 1027.6 -- 84
2020-11-10 13:00:00 15.7 2 Este 9 Este 0 1027.9 -- 87
2020-11-10 12:00:00 15.4 5 Sudoeste 15 Sudoeste 0 1028.2 -- 87
2020-11-10 11:00:00 14.4 10 Sudoeste 17 Sudoeste 0 1027.8 -- 89
2020-11-10 10:00:00 13.6 10 Sudoeste 17 Sudoeste 0 1027.7 -- 92
2020-11-10 09:00:00 12.7 10 Sur 17 Sur 0.1 1027.4 -- 94
2020-11-10 08:00:00 12.7 12 Sudoeste 18 Sudoeste 13.1 1026.6 -- 93
2020-11-10 07:00:00 12.3 6 Este 11 Nordeste 1.5 1025.9 -- 88
2020-11-10 06:00:00 12 7 Sur 9 Sudeste 0 1025.4 -- 89
2020-11-10 05:00:00 12.2 9 Sur 13 Sur 0 1025.1 -- 88
2020-11-10 04:00:00 11.9 10 Sur 13 Sur 0 1025 -- 88
2020-11-10 03:00:00 12.3 10 Sur 15 Sur 0 1025 -- 87
2020-11-10 02:00:00 12.2 10 Sur 13 Sur 0 1024.6 -- 88
2020-11-10 01:00:00 12 11 Sur 17 Sudoeste 0 1024.5 -- 86
2020-11-10 00:00:00 12.3 10 Sudoeste 15 Sur 0 1024.2 -- 84
2020-11-09 23:00:00 11.7 8 Sur 11 Sur 0 1023.8 -- 85
2020-11-09 22:00:00 11.7 8 Sur 11 Sur 0 1023.4 -- 85
2020-11-09 21:00:00 11.8 9 Sur 9 Sur 0 1022.9 -- 85
2020-11-09 20:00:00 13.2 -- -- -- -- 0 1022.6 -- 80
2020-11-09 19:00:00 14.7 6 Sur 9 Sur 0 1021.9 -- 75
2020-11-09 18:00:00 17.2 3 Sur 9 Sur 0 1021.2 -- 67
2020-11-09 17:00:00 19.7 4 Norte 8 Norte 0 1020.7 -- 51
2020-11-09 16:00:00 19.3 6 Norte 21 Este 0 1020.1 -- 55
2020-11-09 15:00:00 20.8 12 Sudeste 24 Sur 0 1019.5 -- 47
2020-11-09 14:00:00 20.8 15 Sur 28 Sur 0 1019.3 -- 49
2020-11-09 13:00:00 19.6 20 Sur 28 Sur 0 1019.7 -- 53
2020-11-09 12:00:00 18.3 13 Sur 21 Sur 0 1020 -- 60
2020-11-09 11:00:00 17.8 8 Sudoeste 13 Sudoeste 0 1019.8 -- 62
2020-11-09 10:00:00 16 12 Sur 15 Sur 0 1019.8 -- 78
2020-11-09 09:00:00 16.3 2 Sudoeste 17 Sudoeste 0.4 1019.6 -- 71
2020-11-09 08:00:00 16.9 8 Sudoeste 18 Sudoeste 0 1018.5 -- 59
2020-11-09 07:00:00 16.9 10 Sudoeste 17 Sur 0 1018 -- 59
2020-11-09 06:00:00 17.8 15 Sur 26 Sur 0 1017.9 -- 52
2020-11-09 05:00:00 17.9 19 Sur 30 Sur 0 1017.5 -- 50
2020-11-09 04:00:00 18.1 12 Sur 28 Sur 0 1017.6 -- 50
2020-11-09 03:00:00 17.1 12 Sur 15 Sur 0 1017.8 -- 57
2020-11-09 02:00:00 17.9 10 Sudeste 18 Sur 0 1017.8 -- 56
2020-11-09 01:00:00 17.1 3 Sudoeste 32 Sur 0 1017.6 -- 53
2020-11-09 00:00:00 18.7 17 Sur 32 Sur 0 1017.2 -- 47
2020-11-08 23:00:00 19 14 Sur 30 Sur 0 1017.2 -- 46
2020-11-08 22:00:00 19.2 20 Sur 37 Sur 0 1017.1 -- 47
2020-11-08 21:00:00 19.6 15 Sur 33 Sur 0 1017.1 -- 47
2020-11-08 20:00:00 19.2 14 Sur 26 Sur 0 1017.4 -- 49
2020-11-08 19:00:00 18.9 17 Sur 32 Sur 0 1017.6 -- 51
2020-11-08 18:00:00 19.6 13 Sur 22 Sur 0 1017.2 -- 48
2020-11-08 17:00:00 20.3 12 Sur 32 Sudeste 0 1017 -- 46
2020-11-08 16:00:00 20.4 23 Sur 35 Sur 0 1017 -- 47
2020-11-08 15:00:00 21 21 Sur 41 Sur 0 1017.3 -- 44
2020-11-08 14:00:00 21.2 30 Sur 41 Sur 0 1017.4 -- 44
2020-11-08 13:00:00 20.9 30 Sur 45 Sur 0 1017.8 -- 45
2020-11-08 12:00:00 20.3 26 Sur 35 Sur 0 1018.6 -- 47
2020-11-08 11:00:00 18.4 24 Sur 35 Sur 0 1018.8 -- 53
2020-11-08 10:00:00 17.9 21 Sur 30 Sur 0 1019.1 -- 54
2020-11-08 09:00:00 17 17 Sur 24 Sur 0 1018.8 -- 59
2020-11-08 08:00:00 16.2 14 Sur 26 Sur 0 1018.8 -- 62
2020-11-08 07:00:00 16.1 18 Sur 28 Sur 0 1018.6 -- 64
2020-11-08 06:00:00 15.6 14 Sur 24 Sur 0 1018.9 -- 67
2020-11-08 05:00:00 14.1 14 Sudeste 21 Sudeste 0 1019 -- 74
2020-11-08 04:00:00 15.8 12 Sur 18 Sur 0 1019.2 -- 66
2020-11-08 03:00:00 15.8 14 Sur 18 Sur 0 1019.2 -- 67
2020-11-08 02:00:00 15.1 11 Sur 15 Sur 0 1018.9 -- 72
2020-11-08 01:00:00 14.3 9 Sur 11 Sur 0 1018.8 -- 77
2020-11-08 00:00:00 15.9 9 Sur 13 Sur 0 1018.6 -- 69
2020-11-07 23:00:00 15.1 11 Sur 15 Sur 0 1018.4 -- 71
2020-11-07 22:00:00 14.4 12 Sur 17 Sudoeste 0 1017.9 -- 77
2020-11-07 21:00:00 14.8 12 Sudoeste 15 Sudoeste 0 1017.2 -- 77
2020-11-07 20:00:00 15.8 10 Sur 15 Oeste 0 1016.7 -- 76
2020-11-07 19:00:00 17.2 12 Sudoeste 17 Sudoeste 0 1015.6 -- 68
2020-11-07 18:00:00 18.4 10 Sudoeste 24 Sudoeste 0 1015.1 -- 65
2020-11-07 17:00:00 19.2 12 Sur 28 Sur 0 1014.8 -- 61
2020-11-07 16:00:00 19 16 Sur 28 Sur 0 1014.3 -- 65
2020-11-07 15:00:00 19.5 10 Sur 17 Sudoeste 0 1013.9 -- 62
2020-11-07 14:00:00 18.5 8 Sur 11 Sur 0 1013.3 -- 69
2020-11-07 13:00:00 17.3 8 Este 18 Sudeste 0 1013.7 -- 76
2020-11-07 12:00:00 16.7 17 Sudeste 35 Sur 0.7 1013.5 -- 75
2020-11-07 11:00:00 16.3 13 Sudeste 24 Este 1.8 1013.2 -- 81
2020-11-07 10:00:00 17 0 Calma 26 Sur 1 1013.3 -- 79
2020-11-07 09:00:00 17.6 12 Sur 24 Sur 2.1 1013.5 -- 76
2020-11-07 08:00:00 19.3 4 Noroeste 17 Sur 0 1011.4 -- 61
2020-11-07 07:00:00 20.5 9 Sur 26 Sur 0 1010.7 -- 55
2020-11-07 06:00:00 21.7 21 Sur 46 Sudeste 0 1012.1 -- 50
2020-11-07 05:00:00 22 31 Sur 55 Sur 0 1012.5 -- 50
2020-11-07 04:00:00 21.6 17 Sur 32 Sur 0 1013.4 -- 51
2020-11-07 03:00:00 21.4 4 Este 32 Sur 0 1013.5 -- 52
2020-11-07 02:00:00 22 22 Sur 41 Sur 0 1013.6 -- 50
2020-11-07 01:00:00 22.1 22 Sur 52 Sur 0 1014.3 -- 50
2020-11-07 00:00:00 22.3 21 Sur 42 Sur 0 1014.2 -- 48
2020-11-06 23:00:00 22.3 28 Sur 61 Sur 0 1014.2 -- 47
2020-11-06 22:00:00 22.5 36 Sur 58 Sur 0 1013.6 -- 46
2020-11-06 21:00:00 22.4 23 Sur 42 Sur 0 1014 -- 47
2020-11-06 20:00:00 22.5 4 Este 18 Sudeste 0 1014.5 -- 46
2020-11-06 19:00:00 21.4 5 Sudeste 26 Este 0 1014.5 -- 50
2020-11-06 18:00:00 21.6 7 Norte 30 Sur 0 1014.8 -- 50
2020-11-06 17:00:00 22.4 15 Sur 52 Sudeste 0 1015 -- 47
2020-11-06 16:00:00 22.8 20 Sudeste 37 Sudeste 0 1015.3 -- 47
2020-11-06 15:00:00 22.8 23 Sudeste 67 Sur 0 1015.3 -- 48
2020-11-06 14:00:00 22.6 42 Sur 74 Sur 0 1015.5 -- 49
2020-11-06 13:00:00 22.4 51 Sur 76 Sur 0 1016.1 -- 49
2020-11-06 12:00:00 22 41 Sur 63 Sur 0 1017.2 -- 50
2020-11-06 11:00:00 21.3 36 Sur 65 Sur 0 1017.6 -0.3 52
2020-11-06 10:00:00 20.8 42 Sur 71 Sur 0 1017.8 -- 54
2020-11-06 09:00:00 20 42 Sur 65 Sur 0 1017.7 -- 56
2020-11-06 08:00:00 18.5 6 Nordeste 26 Este 0 1017.9 -- 60
2020-11-06 07:00:00 18.5 17 Este 30 Sudeste 0 1018.3 -- 58
2020-11-06 06:00:00 14.1 7 Norte 15 Norte 0 1018.8 -- 79
2020-11-06 05:00:00 14.4 10 Nordeste 17 Norte 0 1019 -- 80
2020-11-06 04:00:00 12.5 3 Nordeste 13 Noroeste 0 1019.6 -- 84
2020-11-06 03:00:00 11.7 4 Norte 9 Norte 0 1020.2 -- 88
2020-11-06 02:00:00 11.4 9 Oeste 11 Oeste 0 1020.3 -- 88
2020-11-06 01:00:00 11.4 2 Sudeste 9 Sur 0 1020.6 -- 87
2020-11-06 00:00:00 11.3 9 Sur 11 Sudoeste 0 1020.8 -- 87
2020-11-05 23:00:00 10.5 4 Nordeste 9 Norte 0 1021.1 -- 89
2020-11-05 22:00:00 10.4 0 Calma 9 Oeste 0 1021.7 -- 88
2020-11-05 21:00:00 10.8 0 Calma 5 Sur 0 1022.3 -- 85
2020-11-05 20:00:00 12 0 Calma 13 Nordeste 0 1022.7 -- 83
2020-11-05 19:00:00 13.2 9 Nordeste 13 Nordeste 0 1022.6 -- 70
2020-11-05 18:00:00 14.1 4 Nordeste 17 Nordeste 0 1022.7 -- 65
2020-11-05 17:00:00 15.3 11 Nordeste 24 Este 0 1022.9 -- 61
2020-11-05 16:00:00 16.2 15 Este 28 Nordeste 0 1023.1 -- 55
2020-11-05 15:00:00 16.3 20 Este 26 Nordeste 0 1023.5 -- 56
2020-11-05 14:00:00 16.1 15 Nordeste 24 Nordeste 0 1024.2 -- 60
2020-11-05 13:00:00 15 15 Nordeste 21 Nordeste 0 1025.2 -- 62
2020-11-05 12:00:00 14.1 3 Este 8 Nordeste 0 1026.3 -- 63
2020-11-05 11:00:00 12.3 4 Nordeste 8 Este 0 1026.9 -- 68
2020-11-05 10:00:00 9.9 0 Calma 9 Sur 0 1027.3 -- 79
2020-11-05 09:00:00 7.6 0 Calma 8 Sudoeste 0 1027.6 -- 91
2020-11-05 08:00:00 6.5 5 Oeste 8 Oeste 0 1027.2 -- 91
2020-11-05 07:00:00 7.1 5 Sudoeste 9 Sur 0 1027.1 -- 90
2020-11-05 06:00:00 7.8 0 Calma 15 Sur 0 1027.3 -- 88
2020-11-05 05:00:00 8.3 13 Sur 17 Sudeste 0 1027.2 -- 85
2020-11-05 04:00:00 8.6 3 Sudeste 8 Este 0 1027.4 -- 81
2020-11-05 03:00:00 9.1 2 Sudeste 15 Este 0 1028 -- 80
2020-11-05 02:00:00 9.2 9 Este 13 Este 0 1027.9 -- 76
2020-11-05 01:00:00 9.5 11 Este 15 Este 0 1028 -- 74
2020-11-05 00:00:00 9.4 10 Este 17 Este 0 1028 -- 76
2020-11-04 23:00:00 9.4 9 Nordeste 15 Nordeste 0 1027.9 -- 75
2020-11-04 22:00:00 10.1 11 Este 18 Este 0 1027.6 -- 72
2020-11-04 21:00:00 10.8 10 Este 15 Este 0 1027.3 -- 70
2020-11-04 20:00:00 11 8 Este 15 Este 0 1026.9 -- 70
2020-11-04 19:00:00 11.3 10 Este 17 Este 0 1026.4 -- 68
2020-11-04 18:00:00 11.6 15 Este 22 Nordeste 0 1025.8 -- 64
2020-11-04 17:00:00 11.9 18 Nordeste 28 Nordeste 0 1025.3 -- 66
2020-11-04 16:00:00 12.1 20 Este 28 Nordeste 0 1025.2 -- 65
2020-11-04 15:00:00 12.1 19 Nordeste 28 Este 0 1025.3 -- 68
2020-11-04 14:00:00 11.9 21 Este 30 Nordeste 0 1025.6 -- 70
2020-11-04 13:00:00 12 19 Nordeste 26 Nordeste 0 1025.9 -- 75
2020-11-04 12:00:00 11.7 13 Nordeste 18 Nordeste 0 1026 -- 80
2020-11-04 11:00:00 10 9 Nordeste 13 Nordeste 0 1026.1 0.1 88
2020-11-04 10:00:00 8.6 2 Sudoeste 9 Sur 0 1026.1 -- 92
2020-11-04 09:00:00 7.4 6 Sur 8 Sur 0 1026.1 -- 94
2020-11-04 08:00:00 7.6 6 Sur 9 Sur 0 1026 -- 94
2020-11-04 07:00:00 8 6 Sudeste 8 Sudeste 0 1026.2 -- 95
2020-11-04 06:00:00 7.6 6 Sur 8 Sur 0 1026.5 -- 94
2020-11-04 05:00:00 7.7 4 Sur 9 Sudoeste 0 1026.8 -- 94
2020-11-04 04:00:00 8.5 6 Sudoeste 9 Sudoeste 0 1027.2 -- 93
2020-11-04 03:00:00 9.3 7 Sur 13 Sudoeste 0 1028.2 -- 91
2020-11-04 02:00:00 9.9 9 Sur 13 Sur 0 1028.7 -- 91
2020-11-04 01:00:00 10.3 9 Sudoeste 11 Sur 0.5 1029.2 -- 90
2020-11-04 00:00:00 10.4 6 Sur 15 Sudoeste 0 1030.1 -- 87
2020-11-03 23:00:00 10.5 10 Sudoeste 15 Sur 0 1030.6 -- 86
2020-11-03 22:00:00 11.3 9 Sur 17 Norte 0 1030.9 -- 84
2020-11-03 21:00:00 12.8 11 Norte 24 Norte 0 1031.1 -- 67
2020-11-03 20:00:00 12.8 11 Norte 21 Norte 0 1031.2 -- 69
2020-11-03 19:00:00 13.3 15 Norte 26 Norte 0 1031.3 -- 65
2020-11-03 18:00:00 13.1 8 Noroeste 24 Noroeste 0 1031.1 -- 69
2020-11-03 17:00:00 12.7 5 Sudeste 15 Oeste 0 1030.8 -- 85
2020-11-03 16:00:00 13.7 17 Norte 28 Norte 0.1 1030.7 -- 76
2020-11-03 15:00:00 13.5 13 Norte 24 Norte 0 1030.6 -- 81
2020-11-03 14:00:00 13 10 Norte 26 Noroeste 2.4 1030.8 -- 90
2020-11-03 13:00:00 13.5 8 Noroeste 17 Norte 3.4 1030.6 -- 90
2020-11-03 12:00:00 13.5 4 Sudoeste 9 Sur 0 1030.7 -- 90
2020-11-03 11:00:00 12.4 6 Sur 13 Norte 0.6 1030.6 -- 94
2020-11-03 10:00:00 12.3 10 Norte 28 Oeste 2 1030.4 -- 93
2020-11-03 09:00:00 12.1 14 Sudoeste 22 Sudoeste 0 1029.4 -- 94
2020-11-03 08:00:00 12.1 10 Sudoeste 13 Sudoeste 0.1 1028.9 -- 94
2020-11-03 07:00:00 12.3 5 Sudoeste 9 Sudoeste 0.4 1028.4 -- 94
2020-11-03 06:00:00 12.4 8 Sur 9 Sur 1.5 1028.4 -- 93
2020-11-03 05:00:00 12.3 5 Norte 17 Noroeste 1.5 1027.8 -- 92
2020-11-03 04:00:00 12.6 12 Norte 21 Norte 5.9 1027.4 -- 93
2020-11-03 03:00:00 13 8 Oeste 15 Oeste 0.6 1027.3 -- 92
2020-11-03 02:00:00 13.1 5 Noroeste 17 Norte 0.3 1026.7 -- 92
2020-11-03 01:00:00 13.5 8 Sur 9 Sur 0 1026.4 -- 91
2020-11-03 00:00:00 13.6 5 Norte 15 Norte 0 1026.4 -- 91
2020-11-02 23:00:00 14.1 8 Sudoeste 15 Sur 0 1026.2 -- 90
2020-11-02 22:00:00 14 0 Calma 11 Sur 0.3 1026.1 -- 92
2020-11-02 21:00:00 13.9 8 Sur 22 Norte 0.4 1026.1 -- 90
2020-11-02 20:00:00 14.6 7 Sudoeste 28 Noroeste 1.1 1025.9 -- 89
2020-11-02 19:00:00 16 9 Oeste 21 Noroeste 0.9 1025 -- 87
2020-11-02 18:00:00 16.2 6 Oeste 35 Noroeste 2 1024 -- 89
2020-11-02 17:00:00 17.6 21 Noroeste 61 Oeste 0 1022.9 -- 85
2020-11-02 16:00:00 23.6 22 Oeste 46 Oeste 0 1020.2 -- 55
2020-11-02 15:00:00 24.6 7 Sudoeste 18 Sudoeste 0 1018.8 -- 49
2020-11-02 14:00:00 24.7 12 Sudoeste 22 Oeste 0 1018.7 -- 48
2020-11-02 13:00:00 23.9 13 Sudoeste 21 Sudoeste 0 1019 -- 50
2020-11-02 12:00:00 22.9 12 Oeste 21 Sudoeste 0 1019.4 -- 54
2020-11-02 11:00:00 20 5 Sudoeste 9 Sur -- 1019.4 -- 71
2020-11-02 10:00:00 16.6 9 Sudoeste 11 Sur 0 1019.4 -- 83
2020-11-02 09:00:00 13.8 8 Sudoeste 11 Sudoeste 0 1019.3 -- 92
2020-11-02 08:00:00 13 6 Sudoeste 9 Sudoeste 0 1018.7 -- 92
2020-11-02 07:00:00 13.6 4 Sudoeste 9 Sur 0 1018.2 -- 92
2020-11-02 06:00:00 13.3 7 Sudoeste 9 Sudoeste 0 1018 -- 92
2020-11-02 05:00:00 13.6 5 Sur 9 Sur 0 1017.8 -- 90
2020-11-02 04:00:00 14.2 5 Oeste 8 Sudoeste 0 1017.7 -- 90
2020-11-02 03:00:00 14.4 0 Calma 8 Oeste 0 1017.9 -- 89
2020-11-02 02:00:00 15.1 6 Sudoeste 11 Sudoeste 0 1017.8 -- 86
2020-11-02 01:00:00 15.5 4 Sudoeste 9 Sudoeste 0 1017.8 -- 86
2020-11-02 00:00:00 15.8 8 Sudoeste 11 Sur 0 1017.8 -- 86
2020-11-01 23:00:00 16.3 3 Sudoeste 9 Sur 0 1017.9 -- 83
2020-11-01 22:00:00 17 2 Sudoeste 9 Sur 0 1017.7 -- 82
2020-11-01 21:00:00 17.4 6 Sur 9 Sur 0 1017.8 -- 82
2020-11-01 20:00:00 18.7 5 Sudoeste 11 Sudoeste 0 1018.2 -- 78
2020-11-01 19:00:00 20.2 5 Oeste 9 Sudoeste 0 1018.2 -- 72
2020-11-01 18:00:00 21.7 3 Sur 15 Este 0 1018.4 -- 67
2020-11-01 17:00:00 22.6 5 Norte 8 Norte 0 1018.5 -- 66
2020-11-01 16:00:00 24.6 0 Calma 15 Norte 0 1018.8 -- 55
2020-11-01 15:00:00 25.9 10 Norte 21 Sudeste 0 1019 -- 47
2020-11-01 14:00:00 26.2 13 Sudeste 18 Sudeste 0 1019.3 -- 43
2020-11-01 13:00:00 26.1 6 Sudeste 11 Sur 0 1020 -- 43
2020-11-01 12:00:00 24.3 6 Sur 17 Sudeste 0 1020.6 -- 48
2020-11-01 11:00:00 21.6 12 Sudeste 15 Sudeste 0 1020.8 -- 55
2020-11-01 10:00:00 19.2 12 Sudeste 15 Sur 0 1020.8 -- 64
2020-11-01 09:00:00 14.9 9 Sur 13 Sudeste 0 1020.6 -- 85
2020-11-01 08:00:00 13 9 Sur 15 Sur 0 1019.8 -- 89
2020-11-01 07:00:00 11.9 6 Sudoeste 11 Sudoeste 0 1019.6 -- 92
2020-11-01 06:00:00 12.3 7 Sudoeste 9 Sudoeste 0 1019.4 -- 91
2020-11-01 05:00:00 12.2 6 Sur 13 Sur 0 1019.4 -- 90
2020-11-01 04:00:00 12.6 9 Sudoeste 13 Sur 0 1019.2 -- 86
2020-11-01 03:00:00 13.7 8 Sudoeste 13 Sudoeste 0 1019.7 -- 84
2020-11-01 02:00:00 11.9 12 Sudoeste 13 Sudoeste 0 1020.3 -- 89
2020-11-01 01:00:00 12.3 9 Sudoeste 13 Sudoeste 0 1020.6 -- 89
2020-11-01 00:00:00 12.6 5 Sudoeste 9 Sudoeste 0 1021.1 -- 85
2020-10-31 23:00:00 12.7 9 Sur 9 Sur 0 1020.8 -- 86
2020-10-31 22:00:00 13.5 5 Sudoeste 11 Sudoeste 0 1020.5 -- 87
2020-10-31 21:00:00 14.5 6 Sudoeste 11 Sudoeste 0 1020.5 -- 83
2020-10-31 20:00:00 15.4 6 Sudoeste 9 Sur 0 1021.1 -- 81
2020-10-31 19:00:00 16.7 7 Sudoeste 9 Sudoeste 0 1021 -- 77
2020-10-31 18:00:00 19.4 7 Sur 9 Sur 0 1020.5 -- 66
2020-10-31 17:00:00 22.4 4 Noroeste 17 Norte 0 1020.2 -- 53
2020-10-31 16:00:00 24.4 9 Norte 17 Norte 0 1020.3 -- 47
2020-10-31 15:00:00 24.6 10 Oeste 24 Oeste 0 1020.7 -- 41
2020-10-31 14:00:00 24.7 7 Oeste 21 Sudoeste 0 1020.3 -- 38
2020-10-31 13:00:00 24.5 12 Norte 17 Norte 0 1020.3 -- 43
2020-10-31 12:00:00 23.4 4 Sudeste 11 Sur 0 1020.6 -- 45
2020-10-31 11:00:00 20 3 Sur 13 Sudoeste 0 1021.3 -- 60
2020-10-31 10:00:00 15.2 11 Sur 13 Sudoeste 0 1021.6 -- 80
2020-10-31 09:00:00 10.7 0 Calma 11 Sudoeste 0 1021.4 -- 94
2020-10-31 08:00:00 8.3 9 Sudoeste 13 Sudoeste 0 1020.4 -- 94
2020-10-31 07:00:00 8.2 5 Sudoeste 13 Sudoeste 0 1020.7 -- 94
2020-10-31 06:00:00 8.5 3 Sudoeste 13 Sudoeste 0 1021.1 -- 94
2020-10-31 05:00:00 8.6 8 Sudoeste 13 Sur 0 1021.1 -- 94
2020-10-31 04:00:00 9.4 9 Sudoeste 15 Sur 0 1021.1 -- 95
2020-10-31 03:00:00 9.2 6 Sudoeste 13 Sur 0 1021.8 -- 94
2020-10-31 02:00:00 9.6 5 Sudoeste 13 Sudoeste 0 1022 -- 94
2020-10-31 01:00:00 9.8 5 Oeste 11 Sur 0 1022.5 -- 94
2020-10-31 00:00:00 10.5 8 Sur 11 Sur 0 1022.8 -- 93
2020-10-30 23:00:00 10.4 5 Sudoeste 8 Sudoeste 0 1023.3 -- 93
2020-10-30 22:00:00 11.4 4 Sudoeste 8 Sudoeste 0 1023.4 -- 92
2020-10-30 21:00:00 12.1 5 Sur 8 Sur 0 1023.5 -- 90
2020-10-30 20:00:00 12.9 0 Calma -- -- 0 1023.4 -0.3 88
2020-10-30 19:00:00 14.4 0 Calma 8 Este 0 1023.8 -- 85
2020-10-30 18:00:00 16 6 Este 9 Nordeste 0 1023.7 -- 84
2020-10-30 17:00:00 17 6 Norte 13 Nordeste 0 1023.7 -- 80
2020-10-30 16:00:00 17.3 9 Norte 13 Norte 0 1023.6 -- 80
2020-10-30 15:00:00 18.5 9 Nordeste 18 Norte 0 1023.5 -- 76
2020-10-30 14:00:00 19.4 11 Norte 17 Norte 0 1023.5 -- 74
2020-10-30 13:00:00 18.8 10 Norte 15 Norte 0 1023.8 -- 75
2020-10-30 12:00:00 18 6 Nordeste 8 Norte 0 1024.3 -- 65
2020-10-30 11:00:00 16.5 4 Sur 8 Sur 0 1024.6 -- 71
2020-10-30 10:00:00 12.9 4 Sur 9 Sur 0 1024.8 -- 85
2020-10-30 09:00:00 9.5 9 Sur 11 Sur 0 1024.4 -- 93
2020-10-30 08:00:00 7.9 7 Sudoeste 11 Sur 0 1024 -- 94
2020-10-30 07:00:00 8.6 9 Sudoeste 11 Sudoeste 0 1024 -- 94
2020-10-30 06:00:00 8.7 6 Sudoeste 9 Sudoeste 0 1024.2 -- 94
2020-10-30 05:00:00 8.3 6 Sudoeste 9 Sudoeste 0 1024.1 -- 94
2020-10-30 04:00:00 8.7 9 Sur 9 Sur 0 1024.1 -- 93
2020-10-30 03:00:00 9.3 5 Oeste 9 Sur 0 1024.1 -- 93
2020-10-30 02:00:00 9.8 8 Sudoeste 13 Sur 0 1024.1 -- 92
2020-10-30 01:00:00 9.9 -- -- -- -- 0 1024.3 -- 91
2020-10-30 00:00:00 10.8 5 Sudoeste 9 Sur 0 1024.5 -- 91
2020-10-29 23:00:00 11.9 0 Calma 5 Oeste 0 1024.6 -- 91
2020-10-29 22:00:00 12.5 5 Sur 9 Sudoeste 0 1024.6 -- 90
2020-10-29 21:00:00 13.2 8 Sur 9 Sur 0 1024.5 -- 90
2020-10-29 20:00:00 14.1 8 Sur 9 Sur 0 1024.6 -- 88
2020-10-29 19:00:00 15.2 6 Sur 8 Sur 0 1024.3 -- 85
2020-10-29 18:00:00 17.1 3 Norte 11 Nordeste 0 1023.8 -- 79
2020-10-29 17:00:00 17.8 8 Nordeste 17 Nordeste 0 1023.9 -- 74
2020-10-29 16:00:00 18.4 14 Nordeste 21 Nordeste 0 1024 -- 69
2020-10-29 15:00:00 18.7 11 Norte 17 Norte 0 1024.2 -- 67
2020-10-29 14:00:00 19 12 Norte 17 Norte 0 1024.9 -- 65
2020-10-29 13:00:00 18.9 10 Norte 15 Norte 0 1025.4 -- 63
2020-10-29 12:00:00 18.5 10 Norte 15 Norte 0 1025.8 -- 63
2020-10-29 11:00:00 16.7 3 Sur 8 Sudeste 0 1025.9 -- 67
2020-10-29 10:00:00 14 5 Sur 9 Sur 0 1026.1 -- 77
2020-10-29 09:00:00 11.4 2 Sudoeste 9 Sur 0 1025.8 -- 90
2020-10-29 08:00:00 9.6 8 Sur 11 Sur 0 1025.5 -- 92
2020-10-29 07:00:00 10.5 5 Sudoeste 11 Sur 0 1025.2 -- 90
2020-10-29 06:00:00 11.1 4 Sur 11 Sur 0 1025 -- 88
2020-10-29 05:00:00 12 6 Sur 9 Sur 0 1025.2 -- 88
2020-10-29 04:00:00 12.2 5 Sur 8 Sudoeste 0 1025.3 -- 85
2020-10-29 03:00:00 12.1 7 Sur 9 Sur 0 1024.8 -- 86
2020-10-29 02:00:00 11.5 -- -- -- -- 0 1025 -- 87
2020-10-29 01:00:00 11.1 9 Sur 15 Sur 0 1025 -- 88
2020-10-29 00:00:00 11.5 8 Sur 11 Sur 0 1024.6 -- 87
2020-10-28 23:00:00 12.3 6 Sur 13 Sur 0 1024 -- 85
2020-10-28 22:00:00 12.8 12 Sur 15 Sur 0 1024 -- 87
2020-10-28 21:00:00 14.3 9 Sur 11 Sur 0 1023.2 -- 79
2020-10-28 20:00:00 14.9 6 Sur 9 Sur 0 1023.2 -- 81
2020-10-28 19:00:00 15.8 8 Sudoeste 13 Sudoeste 0 1023 -- 73
2020-10-28 18:00:00 16.4 8 Sudoeste 13 Sudoeste 0 1022.4 -- 71
2020-10-28 17:00:00 17 7 Sudoeste 18 Sudoeste 0 1021.9 -- 65
2020-10-28 16:00:00 17.5 13 Sudoeste 21 Sudoeste 0 1021.6 -- 61
2020-10-28 15:00:00 17.8 10 Oeste 21 Oeste 0 1021.2 -- 58
2020-10-28 14:00:00 17.8 10 Sudoeste 18 Sur 0 1020.8 -- 64
2020-10-28 13:00:00 16.8 8 Sudoeste 13 Sur 0 1021.1 -- 75
2020-10-28 12:00:00 16.7 8 Sudoeste 13 Sudoeste 0 1021 -- 77
2020-10-28 11:00:00 15.2 6 Sudoeste 9 Sudoeste 0 1020.6 -- 92
2020-10-28 10:00:00 14.3 4 Sudeste 8 Sudeste 0.1 1020 -- 94
2020-10-28 09:00:00 14.1 0 Calma 11 Sur 0 1019.3 -- 93
2020-10-28 08:00:00 14.2 8 Sudoeste 22 Oeste 0.3 1018.4 -- 92
2020-10-28 07:00:00 14.3 8 Oeste 18 Oeste 0.5 1017.6 -- 92
2020-10-28 06:00:00 13.2 4 Sudoeste 9 Sur 0 1017.2 -- 88
2020-10-28 05:00:00 13.1 0 Calma 8 Sur 0 1016.7 -- 88
2020-10-28 04:00:00 13.1 6 Sur 11 Sur 0 1016.4 -- 89
2020-10-28 03:00:00 13.7 6 Oeste 11 Este 0 1016.4 -- 87
2020-10-28 02:00:00 14.3 2 Norte 13 Sudoeste 0 1016 -- 79
2020-10-28 01:00:00 15.6 11 Sudoeste 13 Sudoeste 0 1015.8 -- 70
2020-10-28 00:00:00 15.4 11 Sur 15 Sudoeste 0 1015.2 -- 73
2020-10-27 23:00:00 15.1 9 Sur 13 Sur 0 1014.6 -- 76
2020-10-27 22:00:00 15.5 5 Sur 15 Sur 0 1014.2 -- 75
2020-10-27 21:00:00 15.8 10 Sur 17 Sur 0 1013.3 -- 72
2020-10-27 20:00:00 15.9 15 Sur 18 Sur 0 1013.3 -- 72
2020-10-27 19:00:00 15.3 13 Sur 17 Sur 0 1013.1 -- 77
2020-10-27 18:00:00 15 13 Sudoeste 26 Sudoeste 0.2 1013.1 -- 79
2020-10-27 17:00:00 17 10 Sudoeste 26 Sudoeste 0.2 1013.4 -- 67
2020-10-27 16:00:00 18.7 14 Sudoeste 21 Sur 0 1012.7 -- 52
2020-10-27 15:00:00 19.2 16 Sudoeste 24 Sudoeste 0 1012.6 -- 47
2020-10-27 14:00:00 18.6 18 Sudoeste 24 Sudoeste 0 1013 -- 47
2020-10-27 13:00:00 17.5 17 Sudoeste 22 Sur 0 1013.7 -- 51
2020-10-27 12:00:00 15.6 9 Sur 18 Sudeste 0 1014.4 -- 58
2020-10-27 11:00:00 14.3 10 Sur 17 Sudoeste 0 1014.8 -- 63
2020-10-27 10:00:00 13.6 12 Sudoeste 18 Sudoeste 0 1015.3 -- 63
2020-10-27 09:00:00 12.7 14 Sudoeste 21 Sudoeste 0 1015.2 -- 64
2020-10-27 08:00:00 11.5 13 Sudoeste 18 Sudoeste 0 1015.1 -- 72
2020-10-27 07:00:00 10.5 11 Sudoeste 13 Sudoeste 0 1015 -- 79
2020-10-27 06:00:00 10.3 11 Sudoeste 13 Sudoeste 0 1015.1 -- 82
2020-10-27 05:00:00 10.9 11 Sudoeste 21 Sudoeste 0 1015.2 -- 78
2020-10-27 04:00:00 10.7 12 Sudoeste 18 Oeste 0 1015.5 -- 84
2020-10-27 03:00:00 11 13 Sudoeste 18 Oeste 0 1016 -- 82
2020-10-27 02:00:00 11.2 15 Sudoeste 24 Sudoeste 0 1016.6 -- 84
2020-10-27 01:00:00 11.1 10 Sudoeste 21 Sudoeste 0.5 1016.7 -- 87
2020-10-27 00:00:00 11.5 12 Sudoeste 24 Oeste 2.1 1017.4 -- 85